Time;durP1;ratioP1;P1;durP2;ratioP2;P2;SDS_P1;SDS_P2;PMS_P1;PMS_P2;Temp;Humidity;BMP_temperature;BMP_pressure;BME280_temperature;BME280_humidity;BME280_pressure;Samples;Min_cycle;Max_cycle;Signal;HPM_P1;HPM_P2
2022/01/19 00:00:16;;;;;;;0.10;0.10;;;4.80;99.90;;;;;;5074270;28;20032;-72
2022/01/19 00:02:42;;;;;;;0.10;0.10;;;4.80;99.90;;;;;;5074039;28;20538;-71
2022/01/19 00:05:11;;;;;;;0.00;0.00;;;4.80;99.90;;;;;;5072984;28;20048;-71
2022/01/19 00:07:37;;;;;;;0.03;0.03;;;4.80;99.90;;;;;;5072295;28;20024;-71
2022/01/19 00:10:09;;;;;;;0.00;0.00;;;4.90;99.90;;;;;;5072389;28;20032;-71
2022/01/19 00:12:36;;;;;;;0.03;0.03;;;4.80;99.90;;;;;;5072389;28;20115;-71
2022/01/19 00:15:02;;;;;;;0.30;0.30;;;4.90;99.90;;;;;;5072366;28;20025;-71
2022/01/19 00:17:30;;;;;;;0.10;0.10;;;5.00;99.90;;;;;;5072647;28;20036;-71
2022/01/19 00:19:56;;;;;;;0.00;0.00;;;5.10;99.90;;;;;;5072458;28;20063;-71
2022/01/19 00:22:22;;;;;;;0.40;0.40;;;5.10;99.90;;;;;;5072247;28;20102;-71
2022/01/19 00:24:48;;;;;;;0.10;0.10;;;5.10;99.90;;;;;;5073400;28;20040;-72
2022/01/19 00:27:14;;;;;;;0.10;0.10;;;5.10;99.90;;;;;;5072491;28;20530;-72
2022/01/19 00:29:40;;;;;;;0.10;0.10;;;5.10;99.90;;;;;;5073075;28;20021;-71
2022/01/19 00:32:06;;;;;;;0.00;0.00;;;5.10;99.90;;;;;;5072151;28;20421;-72
2022/01/19 00:34:32;;;;;;;0.00;0.00;;;5.10;99.90;;;;;;5055830;28;20041;-72
2022/01/19 00:36:57;;;;;;;0.30;0.30;;;5.10;99.90;;;;;;5071812;28;20040;-71
2022/01/19 00:39:24;;;;;;;2.10;0.68;;;5.20;99.90;;;;;;5073420;28;20036;-71
2022/01/19 00:41:50;;;;;;;0.65;0.65;;;5.10;99.90;;;;;;5073351;28;20085;-71
2022/01/19 00:44:16;;;;;;;0.20;0.20;;;5.10;99.90;;;;;;5073004;28;20036;-71
2022/01/19 00:46:42;;;;;;;0.10;0.10;;;5.10;99.90;;;;;;5072667;28;20049;-71
2022/01/19 00:49:08;;;;;;;0.08;0.08;;;5.10;99.90;;;;;;5072865;28;20085;-71
2022/01/19 00:51:33;;;;;;;0.10;0.10;;;5.10;99.90;;;;;;5072732;28;20075;-71
2022/01/19 00:53:59;;;;;;;0.10;0.10;;;5.10;99.90;;;;;;5071719;28;20025;-71
2022/01/19 00:56:25;;;;;;;0.10;0.10;;;5.10;99.90;;;;;;5071431;28;20082;-71
2022/01/19 00:58:51;;;;;;;0.30;0.30;;;5.10;99.90;;;;;;5071174;28;20451;-71
2022/01/19 01:01:16;;;;;;;0.00;0.00;;;5.20;99.90;;;;;;5072968;28;20046;-72
2022/01/19 01:03:42;;;;;;;0.03;0.03;;;5.20;99.90;;;;;;5072318;28;20045;-72
2022/01/19 01:06:08;;;;;;;0.20;0.20;;;5.10;99.90;;;;;;5072891;28;20388;-71
2022/01/19 01:08:34;;;;;;;0.20;0.20;;;5.20;99.90;;;;;;5071251;28;20090;-71
2022/01/19 01:10:59;;;;;;;0.10;0.10;;;5.10;99.90;;;;;;5072159;28;20208;-71
2022/01/19 01:15:24;;;;;;;0.10;0.10;;;5.10;99.90;;;;;;5054647;28;20058;-71
2022/01/19 01:16:30;;;;;;;0.10;0.10;;;5.10;99.90;;;;;;5072458;28;20032;-71
2022/01/19 01:18:57;;;;;;;0.25;0.25;;;5.10;99.90;;;;;;5071091;28;20497;-71
2022/01/19 01:21:23;;;;;;;0.20;0.20;;;5.10;99.90;;;;;;5071297;28;20401;-72
2022/01/19 01:23:49;;;;;;;0.30;0.30;;;5.10;99.90;;;;;;5071397;28;20028;-72
2022/01/19 01:26:15;;;;;;;0.20;0.20;;;5.10;99.90;;;;;;5072511;28;20423;-72
2022/01/19 01:28:41;;;;;;;0.20;0.20;;;5.00;99.90;;;;;;5072415;28;20521;-72
2022/01/19 01:31:09;;;;;;;0.15;0.15;;;5.10;99.90;;;;;;5070795;28;20044;-72
2022/01/19 01:33:36;;;;;;;0.00;0.00;;;5.10;99.90;;;;;;5070900;28;20028;-72
2022/01/19 01:36:03;;;;;;;0.28;0.28;;;5.00;99.90;;;;;;5070834;28;20028;-72
2022/01/19 01:38:29;;;;;;;1.27;1.20;;;5.00;99.90;;;;;;5070690;28;20029;-72
2022/01/19 01:40:54;;;;;;;0.20;0.20;;;5.00;99.90;;;;;;5070608;28;20107;-72
2022/01/19 01:43:21;;;;;;;0.10;0.10;;;5.00;99.90;;;;;;5072211;28;20039;-72
2022/01/19 01:45:51;;;;;;;0.10;0.10;;;5.00;99.90;;;;;;5070666;28;20044;-72
2022/01/19 01:48:20;;;;;;;0.10;0.10;;;5.00;99.90;;;;;;5070684;28;20117;-72
2022/01/19 01:53:33;;;;;;;0.20;0.20;;;4.90;99.90;;;;;;5070738;28;20108;-72
2022/01/19 01:56:11;;;;;;;0.00;0.00;;;5.00;99.90;;;;;;5072064;28;20039;-72
2022/01/19 01:58:41;;;;;;;0.10;0.10;;;5.00;99.90;;;;;;5072091;28;20029;-72
2022/01/19 02:01:09;;;;;;;0.20;0.20;;;4.90;99.90;;;;;;5070451;28;20036;-72
2022/01/19 02:03:40;;;;;;;0.10;0.10;;;4.80;99.90;;;;;;5069735;28;20028;-72
2022/01/19 02:08:52;;;;;;;0.10;0.10;;;4.80;99.90;;;;;;5071461;28;20072;-72
2022/01/19 02:21:38;;;;;;;0.10;0.10;;;4.70;99.90;;;;;;5070506;28;20065;-72
2022/01/19 02:22:22;;;;;;;0.43;0.43;;;4.60;99.90;;;;;;5070500;28;20033;-72
2022/01/19 02:24:49;;;;;;;0.47;0.47;;;4.50;99.90;;;;;;5071528;28;20074;-72
2022/01/19 02:40:58;;;;;;;0.35;0.35;;;4.20;99.90;;;;;;5071228;28;20045;-72
2022/01/19 02:43:27;;;;;;;0.10;0.10;;;4.20;99.90;;;;;;5071281;28;20028;-72
2022/01/19 02:49:15;;;;;;;0.20;0.20;;;4.20;99.90;;;;;;5009059;28;20038;-72
2022/01/19 02:51:43;;;;;;;4.30;1.45;;;4.20;99.90;;;;;;5064422;28;20045;-72
2022/01/19 02:54:22;;;;;;;0.80;0.55;;;4.20;99.90;;;;;;5070973;28;20558;-72
2022/01/19 02:56:58;;;;;;;0.00;0.00;;;4.20;99.90;;;;;;5071411;28;20032;-72
2022/01/19 03:10:08;;;;;;;1.20;0.93;;;3.90;99.90;;;;;;5071180;28;20041;-72
2022/01/19 03:12:34;;;;;;;0.10;0.10;;;3.80;99.90;;;;;;5069733;28;20378;-72
2022/01/19 03:15:01;;;;;;;0.40;0.40;;;3.80;99.90;;;;;;5071615;28;20036;-72
2022/01/19 03:17:26;;;;;;;0.43;0.43;;;3.70;99.90;;;;;;5090315;28;20111;-72
2022/01/19 03:19:53;;;;;;;0.35;0.35;;;3.70;99.90;;;;;;5073567;28;20128;-72
2022/01/19 03:22:24;;;;;;;0.10;0.10;;;3.60;99.90;;;;;;5074726;28;20405;-72
2022/01/19 03:24:52;;;;;;;0.10;0.10;;;3.60;99.90;;;;;;5074838;28;20370;-70
2022/01/19 03:27:18;;;;;;;3.70;2.28;;;3.50;99.90;;;;;;5074467;28;20059;-71
2022/01/19 03:29:44;;;;;;;0.30;0.30;;;3.50;99.90;;;;;;5074211;28;20041;-71
2022/01/19 03:32:11;;;;;;;0.03;0.03;;;3.30;99.90;;;;;;5073463;28;20039;-71
2022/01/19 03:34:39;;;;;;;1.30;1.20;;;3.30;99.90;;;;;;5073309;28;20082;-71
2022/01/19 03:37:05;;;;;;;0.20;0.20;;;3.20;99.90;;;;;;5074460;28;20498;-71
2022/01/19 03:39:32;;;;;;;0.70;0.70;;;3.10;99.90;;;;;;5074512;28;20032;-71
2022/01/19 03:41:59;;;;;;;1.00;1.00;;;3.00;99.90;;;;;;5074435;28;20036;-71
2022/01/19 03:44:26;;;;;;;0.05;0.05;;;3.00;99.90;;;;;;5074131;28;20119;-71
2022/01/19 03:46:57;;;;;;;0.20;0.20;;;3.00;99.90;;;;;;5073918;28;20045;-71
2022/01/19 03:49:29;;;;;;;1.23;1.15;;;2.90;99.90;;;;;;5073772;28;20028;-70
2022/01/19 03:52:02;;;;;;;0.52;0.40;;;2.90;99.90;;;;;;5072776;28;20064;-71
2022/01/19 03:54:31;;;;;;;3.20;3.00;;;2.90;99.90;;;;;;5072712;28;20119;-72
2022/01/19 03:56:57;;;;;;;0.10;0.10;;;2.80;99.90;;;;;;5074161;28;20048;-71
2022/01/19 03:59:23;;;;;;;0.10;0.10;;;2.80;99.90;;;;;;5074270;28;20077;-71
2022/01/19 04:01:53;;;;;;;0.10;0.10;;;2.70;99.90;;;;;;5074012;28;20037;-71
2022/01/19 04:07:08;;;;;;;0.40;0.40;;;2.60;99.90;;;;;;5073651;28;20397;-71
2022/01/19 04:09:40;;;;;;;0.20;0.20;;;2.70;99.90;;;;;;5057689;28;20075;-71
2022/01/19 04:12:10;;;;;;;0.38;0.38;;;2.60;99.90;;;;;;5072395;28;20097;-71
2022/01/19 04:14:36;;;;;;;0.38;0.38;;;2.60;99.90;;;;;;5072412;28;20052;-71
2022/01/19 04:17:09;;;;;;;0.75;0.75;;;2.60;99.90;;;;;;5073471;28;20075;-71
2022/01/19 04:19:44;;;;;;;0.10;0.10;;;2.50;99.90;;;;;;5073572;28;20090;-71
2022/01/19 04:22:15;;;;;;;0.10;0.10;;;2.50;99.90;;;;;;5088833;28;20389;-71
2022/01/19 04:24:41;;;;;;;0.47;0.47;;;2.40;99.90;;;;;;5073627;28;20461;-71
2022/01/19 04:32:30;;;;;;;0.63;0.63;;;2.30;99.90;;;;;;5072095;28;20036;-71
2022/01/19 04:34:57;;;;;;;0.00;0.00;;;2.30;99.90;;;;;;5073091;28;20033;-71
2022/01/19 04:37:34;;;;;;;5.57;1.02;;;2.30;99.90;;;;;;5072215;28;20040;-71
2022/01/19 05:01:44;;;;;;;1.38;0.88;;;2.30;99.90;;;;;;5074163;28;20042;-71
2022/01/19 05:06:45;;;;;;;0.10;0.10;;;2.40;99.90;;;;;;5065751;28;20029;-71
2022/01/19 05:09:28;;;;;;;0.95;0.90;;;2.60;99.90;;;;;;5060410;28;20108;-71
2022/01/19 05:14:37;;;;;;;0.10;0.10;;;2.60;99.90;;;;;;5065191;28;20031;-71
2022/01/19 05:17:06;;;;;;;0.35;0.35;;;2.70;99.90;;;;;;5051008;28;20041;-71
2022/01/19 05:19:32;;;;;;;0.68;0.68;;;2.60;99.90;;;;;;5052758;28;20105;-71
2022/01/19 05:21:58;;;;;;;0.10;0.10;;;2.50;99.90;;;;;;5052112;28;20071;-71
2022/01/19 05:24:23;;;;;;;0.10;0.10;;;2.60;99.90;;;;;;5052263;28;20572;-71
2022/01/19 05:26:51;;;;;;;0.10;0.10;;;2.50;99.90;;;;;;5050802;28;20055;-71
2022/01/19 05:29:17;;;;;;;0.10;0.10;;;2.60;99.90;;;;;;5052166;28;20500;-72
2022/01/19 05:31:43;;;;;;;1.15;1.10;;;2.60;99.90;;;;;;5052461;28;20041;-72
2022/01/19 05:34:09;;;;;;;0.10;0.10;;;2.60;99.90;;;;;;5052957;28;20033;-73
2022/01/19 05:36:35;;;;;;;0.40;0.40;;;2.50;99.90;;;;;;5069658;28;20038;-73
2022/01/19 05:39:04;;;;;;;0.10;0.10;;;2.50;99.90;;;;;;5091378;28;20476;-72
2022/01/19 05:41:32;;;;;;;3.00;2.80;;;2.50;99.90;;;;;;5091579;28;20028;-74
2022/01/19 05:43:57;;;;;;;2.10;1.95;;;2.40;99.90;;;;;;5091511;28;20063;-77
2022/01/19 05:46:23;;;;;;;2.47;2.30;;;2.40;99.90;;;;;;5092445;28;20087;-74
2022/01/19 05:48:49;;;;;;;0.00;0.00;;;2.60;99.90;;;;;;5092253;28;20388;-72
2022/01/19 05:51:15;;;;;;;0.50;0.50;;;2.50;99.90;;;;;;5090670;28;20050;-72
2022/01/19 05:53:41;;;;;;;0.10;0.10;;;2.40;99.90;;;;;;5092284;28;20024;-71
2022/01/19 05:56:07;;;;;;;3.30;1.95;;;2.40;99.90;;;;;;5092022;28;20072;-77
2022/01/19 05:58:39;;;;;;;0.52;0.30;;;2.30;99.90;;;;;;5090997;28;20069;-74
2022/01/19 06:01:05;;;;;;;0.43;0.43;;;2.20;99.90;;;;;;5090524;28;20024;-75
2022/01/19 06:03:30;;;;;;;0.10;0.10;;;2.20;99.90;;;;;;5092211;28;20388;-72
2022/01/19 06:05:56;;;;;;;1.98;1.75;;;2.20;99.90;;;;;;5087798;28;20075;-71
2022/01/19 06:10:55;;;;;;;0.10;0.10;;;1.90;99.90;;;;;;5071350;28;20119;-71
2022/01/19 06:13:24;;;;;;;0.10;0.10;;;1.90;99.90;;;;;;5070584;28;20107;-71
2022/01/19 06:15:50;;;;;;;0.10;0.10;;;1.80;99.90;;;;;;5071428;28;20067;-71
2022/01/19 06:18:18;;;;;;;1.65;1.00;;;1.80;99.90;;;;;;5087148;28;20033;-70
2022/01/19 06:20:45;;;;;;;0.10;0.10;;;1.80;99.90;;;;;;5086986;28;20029;-71
2022/01/19 06:23:11;;;;;;;0.35;0.35;;;1.70;99.90;;;;;;5071634;28;20067;-71
2022/01/19 06:25:37;;;;;;;0.10;0.10;;;1.70;99.90;;;;;;5087455;28;20076;-71
2022/01/19 06:28:04;;;;;;;0.93;0.30;;;1.80;99.90;;;;;;5071432;28;20373;-65
2022/01/19 06:30:30;;;;;;;0.20;0.20;;;1.80;99.90;;;;;;5086978;28;20033;-64
2022/01/19 06:32:56;;;;;;;1.08;1.08;;;1.70;99.90;;;;;;5071183;28;20456;-65
2022/01/19 06:35:23;;;;;;;0.55;0.55;;;1.50;99.90;;;;;;5071512;28;20089;-72
2022/01/19 06:37:49;;;;;;;0.10;0.10;;;1.20;99.90;;;;;;5090303;28;20114;-71
2022/01/19 06:40:17;;;;;;;5.40;2.63;;;0.90;99.90;;;;;;5091251;28;20028;-72
2022/01/19 06:42:44;;;;;;;0.10;0.10;;;0.80;99.90;;;;;;5091567;28;20032;-72
2022/01/19 06:45:12;;;;;;;0.10;0.10;;;0.70;99.90;;;;;;5068654;28;20060;-71
2022/01/19 06:47:38;;;;;;;5.38;1.10;;;0.70;99.90;;;;;;5066240;28;20056;-73
2022/01/19 06:50:08;;;;;;;0.20;0.20;;;0.90;99.90;;;;;;5051631;28;20033;-72
2022/01/19 06:52:34;;;;;;;0.10;0.10;;;1.00;99.90;;;;;;5053607;28;20048;-72
2022/01/19 06:55:00;;;;;;;0.10;0.10;;;1.20;99.90;;;;;;5055271;28;20021;-73
2022/01/19 06:57:25;;;;;;;7.47;2.65;;;1.30;99.90;;;;;;5054972;28;20070;-73
2022/01/19 06:59:51;;;;;;;1.95;1.55;;;1.20;99.90;;;;;;5055082;28;20381;-73
2022/01/19 07:02:20;;;;;;;0.10;0.10;;;1.30;99.90;;;;;;5055210;28;20453;-73
2022/01/19 07:04:50;;;;;;;0.10;0.10;;;1.20;99.90;;;;;;5054717;28;20037;-73
2022/01/19 07:07:20;;;;;;;0.13;0.13;;;1.40;99.90;;;;;;5073792;28;20032;-73
2022/01/19 07:09:46;;;;;;;0.10;0.10;;;1.60;99.90;;;;;;5073811;28;20033;-73
2022/01/19 07:12:13;;;;;;;5.72;2.65;;;1.70;99.90;;;;;;5073415;28;20029;-72
2022/01/19 07:14:40;;;;;;;1.90;1.77;;;1.60;99.90;;;;;;5056883;28;20451;-72
2022/01/19 07:17:06;;;;;;;0.10;0.10;;;1.60;99.90;;;;;;5073102;28;20029;-72
2022/01/19 07:19:32;;;;;;;0.10;0.10;;;1.70;99.90;;;;;;5073614;28;20362;-71
2022/01/19 07:21:58;;;;;;;0.50;0.50;;;1.70;99.90;;;;;;5074714;28;20036;-73
2022/01/19 07:24:23;;;;;;;0.08;0.08;;;1.70;99.90;;;;;;5073465;28;20036;-72
2022/01/19 07:26:49;;;;;;;0.10;0.10;;;1.70;99.90;;;;;;5073341;28;20081;-72
2022/01/19 07:29:15;;;;;;;0.20;0.20;;;1.80;99.90;;;;;;5074330;28;20029;-72
2022/01/19 07:31:41;;;;;;;0.10;0.10;;;1.80;99.90;;;;;;5074706;28;20055;-72
2022/01/19 07:34:08;;;;;;;2.30;1.42;;;1.80;99.90;;;;;;5073350;28;20033;-73
2022/01/19 07:36:35;;;;;;;0.45;0.32;;;1.80;99.90;;;;;;5074726;28;20044;-72
2022/01/19 07:39:02;;;;;;;0.17;0.17;;;1.90;99.90;;;;;;5074566;28;20583;-70
2022/01/19 07:41:28;;;;;;;0.20;0.20;;;1.90;99.90;;;;;;5074297;28;20473;-71
2022/01/19 07:43:53;;;;;;;0.32;0.32;;;1.90;99.90;;;;;;5074339;28;20039;-70
2022/01/19 07:46:19;;;;;;;0.10;0.10;;;1.80;99.90;;;;;;5074226;28;20045;-69
2022/01/19 07:48:45;;;;;;;3.05;2.00;;;1.80;99.90;;;;;;5072713;28;20036;-70
2022/01/19 07:51:12;;;;;;;0.20;0.20;;;1.80;99.90;;;;;;5072779;28;20028;-66
2022/01/19 07:53:38;;;;;;;0.93;0.93;;;1.80;99.90;;;;;;5074232;28;20036;-70
2022/01/19 07:56:05;;;;;;;0.30;0.30;;;1.90;99.90;;;;;;5074176;28;20036;-69
2022/01/19 07:58:31;;;;;;;0.10;0.10;;;2.00;99.90;;;;;;5073348;28;20048;-70
2022/01/19 08:00:57;;;;;;;0.17;0.17;;;2.00;99.90;;;;;;5073414;28;20044;-70
2022/01/19 08:03:23;;;;;;;0.30;0.30;;;2.00;99.90;;;;;;5073465;28;20028;-70
2022/01/19 08:05:49;;;;;;;0.85;0.85;;;2.00;99.90;;;;;;5089229;28;20388;-69
2022/01/19 08:08:15;;;;;;;4.60;1.50;;;2.00;99.90;;;;;;5073928;28;20035;-69
2022/01/19 08:10:42;;;;;;;0.10;0.10;;;2.00;99.90;;;;;;5072642;28;20139;-70
2022/01/19 08:13:09;;;;;;;0.68;0.68;;;2.00;99.90;;;;;;5072303;28;20029;-69
2022/01/19 08:15:35;;;;;;;0.20;0.20;;;2.00;99.90;;;;;;5072247;28;20032;-69
2022/01/19 08:18:02;;;;;;;0.10;0.10;;;2.00;99.90;;;;;;5072331;28;20070;-69
2022/01/19 08:20:28;;;;;;;0.10;0.10;;;1.90;99.90;;;;;;5073611;28;20054;-69
2022/01/19 08:22:53;;;;;;;0.20;0.20;;;1.80;99.90;;;;;;5073707;28;20028;-69
2022/01/19 08:25:20;;;;;;;1.45;1.35;;;1.80;99.90;;;;;;5073409;28;20037;-69
2022/01/19 08:27:46;;;;;;;0.20;0.20;;;1.80;99.90;;;;;;5072382;28;20060;-70
2022/01/19 08:30:13;;;;;;;0.20;0.20;;;1.90;99.90;;;;;;5072942;28;20423;-69
2022/01/19 08:32:39;;;;;;;1.23;1.13;;;1.80;99.90;;;;;;5072389;28;20149;-70
2022/01/19 08:35:09;;;;;;;0.52;0.52;;;1.90;99.90;;;;;;5072170;28;20182;-70
2022/01/19 08:37:35;;;;;;;0.55;0.55;;;1.90;99.90;;;;;;5072276;28;20489;-70
2022/01/19 08:40:04;;;;;;;0.73;0.73;;;1.90;99.90;;;;;;5072817;28;20029;-70
2022/01/19 08:42:30;;;;;;;0.08;0.08;;;1.80;99.90;;;;;;5072146;28;20505;-70
2022/01/19 08:44:56;;;;;;;0.10;0.10;;;1.90;99.90;;;;;;5071697;28;20115;-71
2022/01/19 08:47:23;;;;;;;0.10;0.10;;;1.90;99.90;;;;;;5072859;28;20044;-70
2022/01/19 08:49:48;;;;;;;0.03;0.03;;;1.90;99.90;;;;;;5071557;28;20388;-69
2022/01/19 08:52:16;;;;;;;0.10;0.10;;;2.00;99.90;;;;;;5072952;28;20033;-70
2022/01/19 08:54:42;;;;;;;4.50;2.42;;;2.00;99.90;;;;;;5071651;28;20397;-70
2022/01/19 08:57:08;;;;;;;4.70;1.55;;;2.00;99.90;;;;;;5072760;28;20037;-69
2022/01/19 08:59:35;;;;;;;0.22;0.22;;;2.10;99.90;;;;;;5072919;28;20567;-69
2022/01/19 09:02:00;;;;;;;1.75;1.65;;;2.20;99.90;;;;;;5072601;28;20474;-70
2022/01/19 09:04:26;;;;;;;0.45;0.45;;;2.30;99.90;;;;;;5071551;28;20042;-69
2022/01/19 09:06:53;;;;;;;0.30;0.30;;;2.30;99.90;;;;;;5072504;28;20064;-69
2022/01/19 09:09:20;;;;;;;2.22;1.55;;;2.30;99.90;;;;;;5071102;28;20054;-70
2022/01/19 09:11:46;;;;;;;0.43;0.43;;;2.40;99.90;;;;;;5064669;28;20031;-70
2022/01/19 09:14:12;;;;;;;1.10;1.00;;;2.40;99.90;;;;;;5052167;28;20025;-69
2022/01/19 09:16:38;;;;;;;0.15;0.15;;;2.50;99.90;;;;;;5034816;28;20123;-70
2022/01/19 09:19:12;;;;;;;0.30;0.30;;;2.50;99.90;;;;;;5052529;28;20040;-70
2022/01/19 09:21:38;;;;;;;0.28;0.28;;;2.50;99.90;;;;;;5052555;28;20493;-69
2022/01/19 09:24:05;;;;;;;0.10;0.10;;;2.60;99.90;;;;;;5034281;28;20044;-70
2022/01/19 09:26:31;;;;;;;0.22;0.22;;;2.70;99.90;;;;;;5051145;28;20056;-69
2022/01/19 09:28:57;;;;;;;0.10;0.10;;;2.80;99.90;;;;;;5052235;28;20523;-69
2022/01/19 09:31:27;;;;;;;0.63;0.63;;;2.80;99.90;;;;;;5052286;28;20052;-69
2022/01/19 09:34:04;;;;;;;0.65;0.65;;;2.80;99.90;;;;;;5052353;28;20033;-70
2022/01/19 09:36:35;;;;;;;0.30;0.30;;;3.00;99.90;;;;;;5067631;28;20405;-70
2022/01/19 09:39:05;;;;;;;0.88;0.88;;;3.00;99.90;;;;;;5050949;28;20040;-70
2022/01/19 09:41:32;;;;;;;0.00;0.00;;;3.10;99.90;;;;;;5051166;28;20067;-69
2022/01/19 09:43:58;;;;;;;0.10;0.10;;;3.20;99.90;;;;;;5052354;28;20534;-70
2022/01/19 09:46:26;;;;;;;0.77;0.77;;;3.30;99.90;;;;;;5051986;28;20053;-71
2022/01/19 09:48:52;;;;;;;0.10;0.10;;;3.50;99.90;;;;;;5050824;28;20382;-70
2022/01/19 09:51:19;;;;;;;13.45;3.50;;;3.50;99.90;;;;;;5050299;28;20067;-70
2022/01/19 09:53:47;;;;;;;0.60;0.60;;;3.70;99.90;;;;;;5067172;28;20043;-70
2022/01/19 09:56:17;;;;;;;0.10;0.10;;;3.70;99.90;;;;;;5051892;28;20036;-70
2022/01/19 09:58:43;;;;;;;0.17;0.17;;;3.70;99.90;;;;;;5067145;28;20033;-70
2022/01/19 10:01:09;;;;;;;0.85;0.85;;;3.80;99.90;;;;;;5051761;28;20440;-70
2022/01/19 10:03:34;;;;;;;1.35;1.13;;;3.90;99.90;;;;;;5051882;28;20033;-69
2022/01/19 10:06:11;;;;;;;4.68;1.83;;;3.80;99.90;;;;;;5051536;28;20040;-69
2022/01/19 10:08:45;;;;;;;0.85;0.85;;;3.90;99.90;;;;;;5051564;28;20047;-69
2022/01/19 10:17:02;;;;;;;0.85;0.85;;;4.30;99.90;;;;;;5051438;28;20036;-69
2022/01/19 10:19:53;;;;;;;0.55;0.55;;;4.80;99.90;;;;;;5051737;28;20029;-69
2022/01/19 10:22:23;;;;;;;0.10;0.10;;;5.00;99.90;;;;;;5051236;28;20090;-70
2022/01/19 10:25:00;;;;;;;0.00;0.00;;;5.20;99.90;;;;;;5051040;28;20377;-69
2022/01/19 10:27:47;;;;;;;1.77;1.10;;;4.80;99.90;;;;;;5066658;28;20036;-70
2022/01/19 10:30:23;;;;;;;0.47;0.47;;;5.10;99.90;;;;;;5051116;28;20028;-70
2022/01/19 10:33:00;;;;;;;0.30;0.30;;;5.20;99.90;;;;;;5051348;28;20033;-70
2022/01/19 10:35:36;;;;;;;0.70;0.70;;;5.60;99.90;;;;;;5050069;28;20029;-70
2022/01/19 10:38:28;;;;;;;1.73;1.63;;;5.90;99.90;;;;;;5051190;28;20120;-70
2022/01/19 10:40:54;;;;;;;0.10;0.10;;;5.30;99.90;;;;;;5051703;28;20037;-70
2022/01/19 10:43:37;;;;;;;0.10;0.10;;;5.20;99.90;;;;;;5051301;28;20087;-70
2022/01/19 10:46:15;;;;;;;0.20;0.20;;;5.00;99.90;;;;;;5050750;28;20040;-70
2022/01/19 10:48:43;;;;;;;0.40;0.40;;;5.00;99.90;;;;;;5051236;28;20501;-70
2022/01/19 10:51:19;;;;;;;0.65;0.65;;;4.80;99.90;;;;;;5049630;28;20456;-70
2022/01/19 10:54:05;;;;;;;0.22;0.22;;;4.70;99.90;;;;;;5051694;28;20423;-71
2022/01/19 10:56:32;;;;;;;0.10;0.10;;;4.50;99.90;;;;;;5050281;28;20098;-71
2022/01/19 10:59:12;;;;;;;0.20;0.20;;;4.30;99.90;;;;;;5051398;28;20025;-72
2022/01/19 11:01:56;;;;;;;0.10;0.10;;;4.30;99.90;;;;;;5051421;28;20029;-71
2022/01/19 11:04:32;;;;;;;1.17;0.82;;;4.40;99.90;;;;;;5033686;28;20028;-71
2022/01/19 11:07:13;;;;;;;0.28;0.28;;;4.30;99.90;;;;;;5051060;28;20029;-70
2022/01/19 11:09:56;;;;;;;0.73;0.73;;;4.40;99.90;;;;;;5049781;28;20049;-71
2022/01/19 11:12:26;;;;;;;0.10;0.10;;;4.40;99.90;;;;;;5050843;28;20090;-70
2022/01/19 11:14:52;;;;;;;0.00;0.00;;;4.30;99.90;;;;;;5064824;28;20054;-70
2022/01/19 11:17:18;;;;;;;0.35;0.35;;;4.40;99.90;;;;;;5067671;28;20044;-70
2022/01/19 11:19:44;;;;;;;0.10;0.10;;;4.40;99.90;;;;;;5071071;28;20036;-73
2022/01/19 11:22:27;;;;;;;0.57;0.57;;;4.50;99.90;;;;;;5054289;28;20039;-73
2022/01/19 11:25:40;;;;;;;0.20;0.20;;;4.50;99.90;;;;;;5071185;28;20036;-71
2022/01/19 11:28:05;;;;;;;3.30;3.00;;;4.50;99.90;;;;;;5069472;28;20032;-74
2022/01/19 11:30:34;;;;;;;0.10;0.10;;;4.50;99.90;;;;;;5070695;28;20033;-77
2022/01/19 11:33:15;;;;;;;0.10;0.10;;;4.60;99.90;;;;;;5070762;28;20085;-74
2022/01/19 11:35:45;;;;;;;0.43;0.43;;;4.60;99.90;;;;;;5070973;28;20033;-76
2022/01/19 11:38:35;;;;;;;1.27;1.20;;;4.60;99.90;;;;;;5074306;28;20037;-74
2022/01/19 11:41:39;;;;;;;0.10;0.10;;;4.50;99.90;;;;;;5074368;28;20076;-71
2022/01/19 11:44:10;;;;;;;0.43;0.43;;;4.50;99.90;;;;;;5073959;28;20067;-72
2022/01/19 11:46:49;;;;;;;0.37;0.37;;;4.60;99.90;;;;;;5071446;28;20493;-72
2022/01/19 11:49:37;;;;;;;0.20;0.20;;;4.70;99.90;;;;;;5054044;28;20302;-72
2022/01/19 11:52:04;;;;;;;1.90;1.75;;;4.60;99.90;;;;;;5057141;28;20047;-68
2022/01/19 11:54:33;;;;;;;0.10;0.10;;;4.60;99.90;;;;;;5052449;28;20064;-68
2022/01/19 11:56:59;;;;;;;0.10;0.10;;;4.60;99.90;;;;;;5052785;28;20555;-70
2022/01/19 11:59:46;;;;;;;0.17;0.17;;;4.60;99.90;;;;;;5053882;28;20049;-70
2022/01/19 12:02:21;;;;;;;0.20;0.20;;;4.60;99.90;;;;;;5053850;28;20033;-70
2022/01/19 12:04:50;;;;;;;0.20;0.20;;;4.60;99.90;;;;;;5053926;28;20037;-69
2022/01/19 12:07:38;;;;;;;0.10;0.10;;;4.60;99.90;;;;;;5053296;28;20036;-69
2022/01/19 12:10:27;;;;;;;0.20;0.20;;;4.60;99.90;;;;;;5053781;28;20065;-69
2022/01/19 12:16:09;;;;;;;0.80;0.80;;;4.50;99.90;;;;;;5052756;28;20540;-69
2022/01/19 12:19:04;;;;;;;1.60;1.50;;;4.50;99.90;;;;;;5052548;28;20044;-69
2022/01/19 12:21:32;;;;;;;0.03;0.03;;;4.50;99.90;;;;;;5053628;28;20029;-69
2022/01/19 12:24:26;;;;;;;0.08;0.08;;;4.40;99.90;;;;;;5053428;28;20190;-69
2022/01/19 12:27:00;;;;;;;0.10;0.10;;;4.40;99.90;;;;;;5053771;28;20071;-69
2022/01/19 12:29:36;;;;;;;0.30;0.30;;;4.40;99.90;;;;;;5053458;28;20111;-69
2022/01/19 12:32:15;;;;;;;0.10;0.10;;;4.30;99.90;;;;;;5053527;28;20094;-69
2022/01/19 12:35:06;;;;;;;0.05;0.05;;;4.30;99.90;;;;;;5053336;28;20557;-69
2022/01/19 12:37:40;;;;;;;1.20;1.10;;;4.40;99.90;;;;;;5052059;28;20090;-69
2022/01/19 12:40:18;;;;;;;1.23;1.15;;;4.30;99.90;;;;;;5053209;28;20060;-69
2022/01/19 12:42:46;;;;;;;0.32;0.32;;;4.40;99.90;;;;;;5053138;28;20501;-69
2022/01/19 12:45:47;;;;;;;0.00;0.00;;;4.40;99.90;;;;;;5052969;28;20036;-69
2022/01/19 12:48:14;;;;;;;0.10;0.10;;;4.40;99.90;;;;;;5050752;28;20048;-69
2022/01/19 12:50:47;;;;;;;0.57;0.57;;;4.30;99.90;;;;;;5051581;28;20037;-69
2022/01/19 12:53:17;;;;;;;0.10;0.10;;;4.30;99.90;;;;;;5051302;28;20044;-69
2022/01/19 12:55:48;;;;;;;0.10;0.10;;;4.30;99.90;;;;;;5052800;28;20032;-70
2022/01/19 12:58:26;;;;;;;0.10;0.10;;;4.40;99.90;;;;;;5052007;28;20040;-70
2022/01/19 13:00:56;;;;;;;0.10;0.10;;;4.30;99.90;;;;;;5053028;28;20039;-70
2022/01/19 13:03:36;;;;;;;0.57;0.57;;;4.40;99.90;;;;;;5052709;28;20505;-70
2022/01/19 13:06:10;;;;;;;0.80;0.80;;;4.40;99.90;;;;;;5052053;28;20753;-69
2022/01/19 13:09:03;;;;;;;0.57;0.57;;;4.40;99.90;;;;;;5070405;28;20036;-68
2022/01/19 13:11:49;;;;;;;0.00;0.00;;;4.40;99.90;;;;;;5069373;28;20537;-69
2022/01/19 13:14:16;;;;;;;0.17;0.17;;;4.40;99.90;;;;;;5056871;28;20495;-69
2022/01/19 13:16:44;;;;;;;1.05;1.05;;;4.40;99.90;;;;;;5071089;28;20048;-68
2022/01/19 13:19:26;;;;;;;1.08;0.68;;;4.40;99.90;;;;;;5071173;28;20036;-68
2022/01/19 13:22:08;;;;;;;0.45;0.45;;;4.30;99.90;;;;;;5072765;28;20048;-69
2022/01/19 13:24:37;;;;;;;0.10;0.10;;;4.20;99.90;;;;;;5070837;28;20389;-69
2022/01/19 13:27:10;;;;;;;0.25;0.25;;;4.30;99.90;;;;;;5070849;28;20430;-70
2022/01/19 13:29:47;;;;;;;0.10;0.10;;;4.20;99.90;;;;;;5070746;28;20393;-69
2022/01/19 13:32:15;;;;;;;0.10;0.10;;;4.20;99.90;;;;;;5070916;28;20075;-68
2022/01/19 13:35:04;;;;;;;6.30;2.25;;;4.30;99.90;;;;;;5070602;28;20106;-69
2022/01/19 13:37:45;;;;;;;0.43;0.43;;;4.20;99.90;;;;;;5072113;28;20492;-69
2022/01/19 13:40:34;;;;;;;1.10;0.85;;;4.30;99.90;;;;;;5070730;28;20086;-69
2022/01/19 13:43:15;;;;;;;0.57;0.57;;;4.30;99.90;;;;;;5070434;28;20079;-70
2022/01/19 13:51:12;;;;;;;0.40;0.40;;;4.30;99.90;;;;;;5070274;28;20051;-70
2022/01/19 13:53:49;;;;;;;0.10;0.10;;;4.30;99.90;;;;;;5070955;28;20126;-69
2022/01/19 13:56:33;;;;;;;0.10;0.10;;;4.30;99.90;;;;;;5071591;28;20051;-70
2022/01/19 13:59:04;;;;;;;0.15;0.15;;;4.30;99.90;;;;;;5070375;28;20068;-70
2022/01/19 14:01:48;;;;;;;1.50;1.42;;;4.30;99.90;;;;;;5071656;28;20447;-69
2022/01/19 14:04:14;;;;;;;1.45;1.25;;;4.20;99.90;;;;;;5070407;28;20089;-69
2022/01/19 14:06:48;;;;;;;0.95;0.75;;;4.20;99.90;;;;;;5070331;28;20508;-69
2022/01/19 14:09:20;;;;;;;0.20;0.20;;;4.20;99.90;;;;;;5070347;28;20098;-70
2022/01/19 14:12:08;;;;;;;0.00;0.00;;;4.20;99.90;;;;;;5071787;28;20040;-70
2022/01/19 14:14:56;;;;;;;0.10;0.10;;;4.20;99.90;;;;;;5070565;28;20432;-70
2022/01/19 14:17:39;;;;;;;3.85;1.02;;;4.20;99.90;;;;;;5070377;28;20029;-70
2022/01/19 14:20:21;;;;;;;0.17;0.17;;;4.20;99.90;;;;;;5070382;28;20064;-71
2022/01/19 14:22:47;;;;;;;0.30;0.30;;;4.20;99.90;;;;;;5071476;28;20056;-71
2022/01/19 14:25:17;;;;;;;0.17;0.17;;;4.20;99.90;;;;;;5070247;28;20060;-73
2022/01/19 14:27:56;;;;;;;0.20;0.20;;;4.20;99.90;;;;;;5070578;28;20024;-72
2022/01/19 14:30:32;;;;;;;0.30;0.30;;;4.10;99.90;;;;;;5070506;28;20032;-72
2022/01/19 14:33:15;;;;;;;0.10;0.10;;;4.20;99.90;;;;;;5071628;28;20086;-71
2022/01/19 14:35:40;;;;;;;0.10;0.10;;;4.20;99.90;;;;;;5071521;28;20028;-71
2022/01/19 14:38:24;;;;;;;0.25;0.25;;;4.10;99.90;;;;;;5070148;28;20036;-71
2022/01/19 14:40:58;;;;;;;0.30;0.30;;;4.20;99.90;;;;;;5070323;28;20397;-69
2022/01/19 14:43:38;;;;;;;0.00;0.00;;;4.20;99.90;;;;;;5071320;28;20040;-70
2022/01/19 14:46:09;;;;;;;0.10;0.10;;;4.10;99.90;;;;;;5061862;28;20041;-69
2022/01/19 14:48:47;;;;;;;0.13;0.13;;;4.20;99.90;;;;;;5054325;28;20064;-70